sensor_id;sensor_type;location;lat;lon;timestamp;temperature;humidity
41678;DHT22;27364;49.026;8.712;2023-07-30T00:01:14;17.20;99.90
41678;DHT22;27364;49.026;8.712;2023-07-30T00:03:39;17.10;99.90
41678;DHT22;27364;49.026;8.712;2023-07-30T00:06:05;17.20;99.90
41678;DHT22;27364;49.026;8.712;2023-07-30T00:08:30;17.20;99.90
41678;DHT22;27364;49.026;8.712;2023-07-30T00:10:57;17.20;99.90
41678;DHT22;27364;49.026;8.712;2023-07-30T00:13:23;17.10;99.90
41678;DHT22;27364;49.026;8.712;2023-07-30T00:15:49;17.20;99.90
41678;DHT22;27364;49.026;8.712;2023-07-30T00:18:15;17.20;99.90
41678;DHT22;27364;49.026;8.712;2023-07-30T00:20:41;17.20;99.90
41678;DHT22;27364;49.026;8.712;2023-07-30T00:23:07;17.20;99.90
41678;DHT22;27364;49.026;8.712;2023-07-30T00:25:32;17.20;99.90
41678;DHT22;27364;49.026;8.712;2023-07-30T00:27:58;17.20;99.90
41678;DHT22;27364;49.026;8.712;2023-07-30T00:30:24;17.20;99.90
41678;DHT22;27364;49.026;8.712;2023-07-30T00:32:49;17.20;99.90
41678;DHT22;27364;49.026;8.712;2023-07-30T00:35:15;17.10;99.90
41678;DHT22;27364;49.026;8.712;2023-07-30T00:37:41;17.10;99.90
41678;DHT22;27364;49.026;8.712;2023-07-30T00:40:07;17.10;99.90
41678;DHT22;27364;49.026;8.712;2023-07-30T00:42:32;17.10;99.90
41678;DHT22;27364;49.026;8.712;2023-07-30T00:44:58;17.10;99.90
41678;DHT22;27364;49.026;8.712;2023-07-30T00:47:24;17.10;99.90
41678;DHT22;27364;49.026;8.712;2023-07-30T00:49:53;17.10;99.90
41678;DHT22;27364;49.026;8.712;2023-07-30T00:52:20;17.10;99.90
41678;DHT22;27364;49.026;8.712;2023-07-30T00:54:49;17.10;99.90
41678;DHT22;27364;49.026;8.712;2023-07-30T00:57:18;17.10;99.90
41678;DHT22;27364;49.026;8.712;2023-07-30T00:59:45;17.20;99.90
41678;DHT22;27364;49.026;8.712;2023-07-30T01:02:11;17.10;99.90
41678;DHT22;27364;49.026;8.712;2023-07-30T01:04:37;17.10;99.90
41678;DHT22;27364;49.026;8.712;2023-07-30T01:07:05;17.10;99.90
41678;DHT22;27364;49.026;8.712;2023-07-30T01:09:31;17.00;99.90
41678;DHT22;27364;49.026;8.712;2023-07-30T01:11:58;17.10;99.90
41678;DHT22;27364;49.026;8.712;2023-07-30T01:14:24;17.10;99.90
41678;DHT22;27364;49.026;8.712;2023-07-30T01:16:52;17.20;99.90
41678;DHT22;27364;49.026;8.712;2023-07-30T01:19:18;17.10;99.90
41678;DHT22;27364;49.026;8.712;2023-07-30T01:21:43;17.20;99.90
41678;DHT22;27364;49.026;8.712;2023-07-30T01:24:09;17.20;99.90
41678;DHT22;27364;49.026;8.712;2023-07-30T01:26:39;17.20;99.90
41678;DHT22;27364;49.026;8.712;2023-07-30T01:29:11;17.20;99.90
41678;DHT22;27364;49.026;8.712;2023-07-30T01:31:41;17.20;99.90
41678;DHT22;27364;49.026;8.712;2023-07-30T01:34:09;17.20;99.90
41678;DHT22;27364;49.026;8.712;2023-07-30T01:36:37;17.20;99.90
41678;DHT22;27364;49.026;8.712;2023-07-30T01:39:05;17.20;99.90
41678;DHT22;27364;49.026;8.712;2023-07-30T01:41:31;17.20;99.90
41678;DHT22;27364;49.026;8.712;2023-07-30T01:43:58;17.30;99.90
41678;DHT22;27364;49.026;8.712;2023-07-30T01:46:23;17.30;99.90
41678;DHT22;27364;49.026;8.712;2023-07-30T01:48:49;17.40;99.90
41678;DHT22;27364;49.026;8.712;2023-07-30T01:51:14;17.40;99.90
41678;DHT22;27364;49.026;8.712;2023-07-30T01:53:40;17.40;99.90
41678;DHT22;27364;49.026;8.712;2023-07-30T01:56:06;17.40;99.90
41678;DHT22;27364;49.026;8.712;2023-07-30T01:58:31;17.50;99.90
41678;DHT22;27364;49.026;8.712;2023-07-30T02:00:58;17.50;99.90
41678;DHT22;27364;49.026;8.712;2023-07-30T02:03:24;17.50;99.90
41678;DHT22;27364;49.026;8.712;2023-07-30T02:05:50;17.50;99.90
41678;DHT22;27364;49.026;8.712;2023-07-30T02:08:16;17.50;99.90
41678;DHT22;27364;49.026;8.712;2023-07-30T02:10:41;17.60;99.90
41678;DHT22;27364;49.026;8.712;2023-07-30T02:13:07;17.60;99.90
41678;DHT22;27364;49.026;8.712;2023-07-30T02:15:33;17.70;99.90
41678;DHT22;27364;49.026;8.712;2023-07-30T02:17:58;17.70;99.90
41678;DHT22;27364;49.026;8.712;2023-07-30T02:20:24;17.70;99.90
41678;DHT22;27364;49.026;8.712;2023-07-30T02:22:50;17.70;99.90
41678;DHT22;27364;49.026;8.712;2023-07-30T02:25:15;17.80;99.90
41678;DHT22;27364;49.026;8.712;2023-07-30T02:27:41;17.80;99.90
41678;DHT22;27364;49.026;8.712;2023-07-30T02:30:07;17.70;99.90
41678;DHT22;27364;49.026;8.712;2023-07-30T02:32:33;17.80;99.90
41678;DHT22;27364;49.026;8.712;2023-07-30T02:34:58;17.80;99.90
41678;DHT22;27364;49.026;8.712;2023-07-30T02:37:24;17.80;99.90
41678;DHT22;27364;49.026;8.712;2023-07-30T02:39:49;17.80;99.90
41678;DHT22;27364;49.026;8.712;2023-07-30T02:42:15;17.80;99.90
41678;DHT22;27364;49.026;8.712;2023-07-30T02:44:40;17.90;99.90
41678;DHT22;27364;49.026;8.712;2023-07-30T02:47:06;17.90;99.90
41678;DHT22;27364;49.026;8.712;2023-07-30T02:49:32;17.90;99.90
41678;DHT22;27364;49.026;8.712;2023-07-30T02:51:57;17.90;99.90
41678;DHT22;27364;49.026;8.712;2023-07-30T02:54:23;17.90;99.90
41678;DHT22;27364;49.026;8.712;2023-07-30T02:56:48;17.90;99.90
41678;DHT22;27364;49.026;8.712;2023-07-30T02:59:14;18.00;99.90
41678;DHT22;27364;49.026;8.712;2023-07-30T03:01:40;18.00;99.90
41678;DHT22;27364;49.026;8.712;2023-07-30T03:04:05;18.00;99.90
41678;DHT22;27364;49.026;8.712;2023-07-30T03:06:31;18.00;99.90
41678;DHT22;27364;49.026;8.712;2023-07-30T03:08:57;18.00;99.90
41678;DHT22;27364;49.026;8.712;2023-07-30T03:11:23;18.00;99.90
41678;DHT22;27364;49.026;8.712;2023-07-30T03:13:48;18.00;99.90
41678;DHT22;27364;49.026;8.712;2023-07-30T03:16:14;18.00;99.90
41678;DHT22;27364;49.026;8.712;2023-07-30T03:18:40;18.00;99.90
41678;DHT22;27364;49.026;8.712;2023-07-30T03:21:05;18.00;99.90
41678;DHT22;27364;49.026;8.712;2023-07-30T03:23:31;18.00;99.90
41678;DHT22;27364;49.026;8.712;2023-07-30T03:25:57;18.00;99.90
41678;DHT22;27364;49.026;8.712;2023-07-30T03:28:23;18.00;99.90
41678;DHT22;27364;49.026;8.712;2023-07-30T03:30:49;18.00;99.90
41678;DHT22;27364;49.026;8.712;2023-07-30T03:33:15;18.00;99.90
41678;DHT22;27364;49.026;8.712;2023-07-30T03:35:40;18.10;99.90
41678;DHT22;27364;49.026;8.712;2023-07-30T03:38:06;18.00;99.90
41678;DHT22;27364;49.026;8.712;2023-07-30T03:40:32;18.00;99.90
41678;DHT22;27364;49.026;8.712;2023-07-30T03:42:57;18.00;99.90
41678;DHT22;27364;49.026;8.712;2023-07-30T03:45:23;18.00;99.90
41678;DHT22;27364;49.026;8.712;2023-07-30T03:47:48;18.10;99.90
41678;DHT22;27364;49.026;8.712;2023-07-30T03:50:14;18.10;99.90
41678;DHT22;27364;49.026;8.712;2023-07-30T03:52:40;18.10;99.90
41678;DHT22;27364;49.026;8.712;2023-07-30T03:55:05;18.10;99.90
41678;DHT22;27364;49.026;8.712;2023-07-30T03:57:33;18.10;99.90
41678;DHT22;27364;49.026;8.712;2023-07-30T04:00:00;18.10;99.90
41678;DHT22;27364;49.026;8.712;2023-07-30T04:02:26;18.10;99.90
41678;DHT22;27364;49.026;8.712;2023-07-30T04:04:51;18.10;99.90
41678;DHT22;27364;49.026;8.712;2023-07-30T04:07:17;18.10;99.90
41678;DHT22;27364;49.026;8.712;2023-07-30T04:09:43;18.20;99.90
41678;DHT22;27364;49.026;8.712;2023-07-30T04:12:08;18.20;99.90
41678;DHT22;27364;49.026;8.712;2023-07-30T04:14:34;18.20;99.90
41678;DHT22;27364;49.026;8.712;2023-07-30T04:16:59;18.20;99.90
41678;DHT22;27364;49.026;8.712;2023-07-30T04:19:25;18.20;99.90
41678;DHT22;27364;49.026;8.712;2023-07-30T04:21:51;18.20;99.90
41678;DHT22;27364;49.026;8.712;2023-07-30T04:24:16;18.10;99.90
41678;DHT22;27364;49.026;8.712;2023-07-30T04:26:42;18.10;99.90
41678;DHT22;27364;49.026;8.712;2023-07-30T04:29:07;18.20;99.90
41678;DHT22;27364;49.026;8.712;2023-07-30T04:31:33;18.30;99.90
41678;DHT22;27364;49.026;8.712;2023-07-30T04:33:59;18.30;99.90
41678;DHT22;27364;49.026;8.712;2023-07-30T04:36:24;18.20;99.90
41678;DHT22;27364;49.026;8.712;2023-07-30T04:38:50;18.20;99.90
41678;DHT22;27364;49.026;8.712;2023-07-30T04:41:15;18.20;99.90
41678;DHT22;27364;49.026;8.712;2023-07-30T04:43:42;18.10;99.90
41678;DHT22;27364;49.026;8.712;2023-07-30T04:46:08;18.10;99.90
41678;DHT22;27364;49.026;8.712;2023-07-30T04:48:33;18.00;99.90
41678;DHT22;27364;49.026;8.712;2023-07-30T04:50:59;18.00;99.90
41678;DHT22;27364;49.026;8.712;2023-07-30T04:53:25;17.90;99.90
41678;DHT22;27364;49.026;8.712;2023-07-30T04:55:55;17.80;99.90
41678;DHT22;27364;49.026;8.712;2023-07-30T04:58:21;17.70;99.90
41678;DHT22;27364;49.026;8.712;2023-07-30T05:00:47;17.70;99.90
41678;DHT22;27364;49.026;8.712;2023-07-30T05:03:12;17.60;99.90
41678;DHT22;27364;49.026;8.712;2023-07-30T05:05:38;17.60;99.90
41678;DHT22;27364;49.026;8.712;2023-07-30T05:08:03;17.60;99.90
41678;DHT22;27364;49.026;8.712;2023-07-30T05:10:29;17.50;99.90
41678;DHT22;27364;49.026;8.712;2023-07-30T05:12:54;17.50;99.90
41678;DHT22;27364;49.026;8.712;2023-07-30T05:15:20;17.50;99.90
41678;DHT22;27364;49.026;8.712;2023-07-30T05:17:46;17.50;99.90
41678;DHT22;27364;49.026;8.712;2023-07-30T05:20:11;17.50;99.90
41678;DHT22;27364;49.026;8.712;2023-07-30T05:22:37;17.50;99.90
41678;DHT22;27364;49.026;8.712;2023-07-30T05:25:02;17.50;99.90
41678;DHT22;27364;49.026;8.712;2023-07-30T05:27:28;17.60;99.90
41678;DHT22;27364;49.026;8.712;2023-07-30T05:29:54;17.50;99.90
41678;DHT22;27364;49.026;8.712;2023-07-30T05:32:20;17.50;99.90
41678;DHT22;27364;49.026;8.712;2023-07-30T05:34:46;17.50;99.90
41678;DHT22;27364;49.026;8.712;2023-07-30T05:37:12;17.60;99.90
41678;DHT22;27364;49.026;8.712;2023-07-30T05:39:37;17.60;99.90
41678;DHT22;27364;49.026;8.712;2023-07-30T05:42:03;17.60;99.90
41678;DHT22;27364;49.026;8.712;2023-07-30T05:44:28;17.60;99.90
41678;DHT22;27364;49.026;8.712;2023-07-30T05:46:54;17.60;99.90
41678;DHT22;27364;49.026;8.712;2023-07-30T05:49:20;17.60;99.90
41678;DHT22;27364;49.026;8.712;2023-07-30T05:51:45;17.60;99.90
41678;DHT22;27364;49.026;8.712;2023-07-30T05:54:12;17.70;99.90
41678;DHT22;27364;49.026;8.712;2023-07-30T05:56:38;17.70;99.90
41678;DHT22;27364;49.026;8.712;2023-07-30T05:59:03;17.70;99.90
41678;DHT22;27364;49.026;8.712;2023-07-30T06:01:29;17.70;99.90
41678;DHT22;27364;49.026;8.712;2023-07-30T06:03:55;17.70;99.90
41678;DHT22;27364;49.026;8.712;2023-07-30T06:06:20;17.80;99.90
41678;DHT22;27364;49.026;8.712;2023-07-30T06:08:52;17.80;99.90
41678;DHT22;27364;49.026;8.712;2023-07-30T06:11:18;17.80;99.90
41678;DHT22;27364;49.026;8.712;2023-07-30T06:13:44;17.80;99.90
41678;DHT22;27364;49.026;8.712;2023-07-30T06:16:10;17.80;99.90
41678;DHT22;27364;49.026;8.712;2023-07-30T06:18:35;17.90;99.90
41678;DHT22;27364;49.026;8.712;2023-07-30T06:21:01;17.90;99.90
41678;DHT22;27364;49.026;8.712;2023-07-30T06:23:26;18.00;99.90
41678;DHT22;27364;49.026;8.712;2023-07-30T06:25:52;18.00;99.90
41678;DHT22;27364;49.026;8.712;2023-07-30T06:28:18;18.10;99.90
41678;DHT22;27364;49.026;8.712;2023-07-30T06:30:43;18.10;99.90
41678;DHT22;27364;49.026;8.712;2023-07-30T06:33:09;18.20;99.90
41678;DHT22;27364;49.026;8.712;2023-07-30T06:35:35;18.30;99.90
41678;DHT22;27364;49.026;8.712;2023-07-30T06:38:01;18.30;99.90
41678;DHT22;27364;49.026;8.712;2023-07-30T06:40:26;18.50;99.90
41678;DHT22;27364;49.026;8.712;2023-07-30T06:42:52;18.60;99.90
41678;DHT22;27364;49.026;8.712;2023-07-30T06:45:20;18.70;99.90
41678;DHT22;27364;49.026;8.712;2023-07-30T06:47:46;18.70;99.90
41678;DHT22;27364;49.026;8.712;2023-07-30T06:50:11;18.60;99.90
41678;DHT22;27364;49.026;8.712;2023-07-30T06:52:37;18.60;99.90
41678;DHT22;27364;49.026;8.712;2023-07-30T06:55:03;18.60;99.90
41678;DHT22;27364;49.026;8.712;2023-07-30T06:57:29;18.60;99.90
41678;DHT22;27364;49.026;8.712;2023-07-30T06:59:56;18.50;99.90
41678;DHT22;27364;49.026;8.712;2023-07-30T07:02:22;18.50;99.90
41678;DHT22;27364;49.026;8.712;2023-07-30T07:04:47;18.40;99.90
41678;DHT22;27364;49.026;8.712;2023-07-30T07:07:13;18.30;99.90
41678;DHT22;27364;49.026;8.712;2023-07-30T07:09:39;18.20;99.90
41678;DHT22;27364;49.026;8.712;2023-07-30T07:12:04;18.10;99.90
41678;DHT22;27364;49.026;8.712;2023-07-30T07:14:30;18.00;99.90
41678;DHT22;27364;49.026;8.712;2023-07-30T07:16:56;18.00;99.90
41678;DHT22;27364;49.026;8.712;2023-07-30T07:19:22;18.00;99.90
41678;DHT22;27364;49.026;8.712;2023-07-30T07:21:48;18.00;99.90
41678;DHT22;27364;49.026;8.712;2023-07-30T07:24:14;18.00;99.90
41678;DHT22;27364;49.026;8.712;2023-07-30T07:26:39;18.00;99.90
41678;DHT22;27364;49.026;8.712;2023-07-30T07:29:05;18.10;99.90
41678;DHT22;27364;49.026;8.712;2023-07-30T07:31:32;18.00;99.90
41678;DHT22;27364;49.026;8.712;2023-07-30T07:33:58;18.00;99.90
41678;DHT22;27364;49.026;8.712;2023-07-30T07:36:23;18.00;99.90
41678;DHT22;27364;49.026;8.712;2023-07-30T07:38:49;18.10;99.90
41678;DHT22;27364;49.026;8.712;2023-07-30T07:41:15;18.10;99.90
41678;DHT22;27364;49.026;8.712;2023-07-30T07:43:47;18.10;99.90
41678;DHT22;27364;49.026;8.712;2023-07-30T07:46:13;18.00;99.90
41678;DHT22;27364;49.026;8.712;2023-07-30T07:48:40;18.10;99.90
41678;DHT22;27364;49.026;8.712;2023-07-30T07:51:07;18.10;99.90
41678;DHT22;27364;49.026;8.712;2023-07-30T07:53:32;18.10;99.90
41678;DHT22;27364;49.026;8.712;2023-07-30T07:55:58;18.20;99.90
41678;DHT22;27364;49.026;8.712;2023-07-30T07:58:23;18.30;99.90
41678;DHT22;27364;49.026;8.712;2023-07-30T08:00:54;18.30;99.90
41678;DHT22;27364;49.026;8.712;2023-07-30T08:03:22;18.40;99.90
41678;DHT22;27364;49.026;8.712;2023-07-30T08:05:48;18.50;99.90
41678;DHT22;27364;49.026;8.712;2023-07-30T08:08:14;18.50;99.90
41678;DHT22;27364;49.026;8.712;2023-07-30T08:10:40;18.60;99.90
41678;DHT22;27364;49.026;8.712;2023-07-30T08:13:09;18.70;99.90
41678;DHT22;27364;49.026;8.712;2023-07-30T08:15:35;18.80;99.90
41678;DHT22;27364;49.026;8.712;2023-07-30T08:18:01;18.90;99.90
41678;DHT22;27364;49.026;8.712;2023-07-30T08:20:26;19.00;99.90
41678;DHT22;27364;49.026;8.712;2023-07-30T08:22:52;19.00;99.90
41678;DHT22;27364;49.026;8.712;2023-07-30T08:25:18;19.10;99.90
41678;DHT22;27364;49.026;8.712;2023-07-30T08:27:43;19.20;99.90
41678;DHT22;27364;49.026;8.712;2023-07-30T08:30:10;19.30;99.90
41678;DHT22;27364;49.026;8.712;2023-07-30T08:32:36;19.20;99.90
41678;DHT22;27364;49.026;8.712;2023-07-30T08:35:01;19.10;99.90
41678;DHT22;27364;49.026;8.712;2023-07-30T08:37:28;19.10;99.90
41678;DHT22;27364;49.026;8.712;2023-07-30T08:39:53;19.00;99.90
41678;DHT22;27364;49.026;8.712;2023-07-30T08:42:19;18.90;99.90
41678;DHT22;27364;49.026;8.712;2023-07-30T08:44:45;18.80;99.90
41678;DHT22;27364;49.026;8.712;2023-07-30T08:47:11;18.80;99.90
41678;DHT22;27364;49.026;8.712;2023-07-30T08:49:37;18.80;99.90
41678;DHT22;27364;49.026;8.712;2023-07-30T08:52:03;18.80;99.90
41678;DHT22;27364;49.026;8.712;2023-07-30T08:54:31;18.70;99.90
41678;DHT22;27364;49.026;8.712;2023-07-30T08:56:58;18.80;99.90
41678;DHT22;27364;49.026;8.712;2023-07-30T08:59:24;18.90;99.90
41678;DHT22;27364;49.026;8.712;2023-07-30T09:01:52;18.90;99.90
41678;DHT22;27364;49.026;8.712;2023-07-30T09:04:19;19.00;99.90
41678;DHT22;27364;49.026;8.712;2023-07-30T09:06:49;19.10;99.90
41678;DHT22;27364;49.026;8.712;2023-07-30T09:09:15;19.30;99.90
41678;DHT22;27364;49.026;8.712;2023-07-30T09:11:41;19.40;99.90
41678;DHT22;27364;49.026;8.712;2023-07-30T09:14:07;19.50;99.90
41678;DHT22;27364;49.026;8.712;2023-07-30T09:16:33;19.60;99.90
41678;DHT22;27364;49.026;8.712;2023-07-30T09:18:59;19.60;99.90
41678;DHT22;27364;49.026;8.712;2023-07-30T09:21:32;19.60;99.90
41678;DHT22;27364;49.026;8.712;2023-07-30T09:24:02;19.80;99.90
41678;DHT22;27364;49.026;8.712;2023-07-30T09:26:40;19.80;99.90
41678;DHT22;27364;49.026;8.712;2023-07-30T09:29:10;19.60;99.90
41678;DHT22;27364;49.026;8.712;2023-07-30T09:31:50;19.60;99.90
41678;DHT22;27364;49.026;8.712;2023-07-30T09:34:23;19.50;99.90
41678;DHT22;27364;49.026;8.712;2023-07-30T09:36:53;19.40;99.90
41678;DHT22;27364;49.026;8.712;2023-07-30T09:39:21;19.20;99.90
41678;DHT22;27364;49.026;8.712;2023-07-30T09:41:47;19.20;99.90
41678;DHT22;27364;49.026;8.712;2023-07-30T09:44:15;19.20;99.90
41678;DHT22;27364;49.026;8.712;2023-07-30T09:46:46;19.30;99.90
41678;DHT22;27364;49.026;8.712;2023-07-30T09:49:12;19.30;99.90
41678;DHT22;27364;49.026;8.712;2023-07-30T09:51:39;19.30;99.90
41678;DHT22;27364;49.026;8.712;2023-07-30T09:54:09;19.40;99.90
41678;DHT22;27364;49.026;8.712;2023-07-30T09:56:39;19.40;99.90
41678;DHT22;27364;49.026;8.712;2023-07-30T09:59:06;19.50;99.90
41678;DHT22;27364;49.026;8.712;2023-07-30T10:01:41;19.50;99.90
41678;DHT22;27364;49.026;8.712;2023-07-30T10:04:10;19.60;99.90
41678;DHT22;27364;49.026;8.712;2023-07-30T10:09:15;19.60;99.90
41678;DHT22;27364;49.026;8.712;2023-07-30T10:11:44;19.60;99.90
41678;DHT22;27364;49.026;8.712;2023-07-30T10:14:11;19.60;99.90
41678;DHT22;27364;49.026;8.712;2023-07-30T10:16:37;19.60;99.90
41678;DHT22;27364;49.026;8.712;2023-07-30T10:19:03;19.50;99.90
41678;DHT22;27364;49.026;8.712;2023-07-30T10:21:28;19.40;99.90
41678;DHT22;27364;49.026;8.712;2023-07-30T10:24:00;19.50;99.90
41678;DHT22;27364;49.026;8.712;2023-07-30T10:26:28;19.40;99.90
41678;DHT22;27364;49.026;8.712;2023-07-30T10:29:14;19.50;99.90
41678;DHT22;27364;49.026;8.712;2023-07-30T10:32:02;19.70;99.90
41678;DHT22;27364;49.026;8.712;2023-07-30T10:34:27;20.00;99.90
41678;DHT22;27364;49.026;8.712;2023-07-30T10:37:08;20.10;99.90
41678;DHT22;27364;49.026;8.712;2023-07-30T10:39:33;19.90;99.90
41678;DHT22;27364;49.026;8.712;2023-07-30T10:42:00;19.80;99.90
41678;DHT22;27364;49.026;8.712;2023-07-30T10:44:34;19.60;99.90
41678;DHT22;27364;49.026;8.712;2023-07-30T10:47:01;19.60;99.90
41678;DHT22;27364;49.026;8.712;2023-07-30T10:49:27;19.70;99.90
41678;DHT22;27364;49.026;8.712;2023-07-30T10:51:54;19.70;99.90
41678;DHT22;27364;49.026;8.712;2023-07-30T10:54:20;19.80;99.90
41678;DHT22;27364;49.026;8.712;2023-07-30T10:56:46;19.70;99.90
41678;DHT22;27364;49.026;8.712;2023-07-30T10:59:13;19.60;99.90
41678;DHT22;27364;49.026;8.712;2023-07-30T11:01:40;19.80;99.90
41678;DHT22;27364;49.026;8.712;2023-07-30T11:04:17;20.10;99.90
41678;DHT22;27364;49.026;8.712;2023-07-30T11:06:47;20.10;99.90
41678;DHT22;27364;49.026;8.712;2023-07-30T11:09:32;20.30;99.90
41678;DHT22;27364;49.026;8.712;2023-07-30T11:11:57;20.40;99.90
41678;DHT22;27364;49.026;8.712;2023-07-30T11:14:24;20.60;99.90
41678;DHT22;27364;49.026;8.712;2023-07-30T11:16:58;20.50;99.90
41678;DHT22;27364;49.026;8.712;2023-07-30T11:19:26;20.60;99.90
41678;DHT22;27364;49.026;8.712;2023-07-30T11:21:53;20.60;99.90
41678;DHT22;27364;49.026;8.712;2023-07-30T11:24:22;20.70;99.90
41678;DHT22;27364;49.026;8.712;2023-07-30T11:26:59;20.70;99.90
41678;DHT22;27364;49.026;8.712;2023-07-30T11:29:25;20.90;99.90
41678;DHT22;27364;49.026;8.712;2023-07-30T11:31:50;21.10;99.90
41678;DHT22;27364;49.026;8.712;2023-07-30T11:34:16;21.30;99.90
41678;DHT22;27364;49.026;8.712;2023-07-30T11:36:44;21.20;99.90
41678;DHT22;27364;49.026;8.712;2023-07-30T11:39:10;21.50;99.90
41678;DHT22;27364;49.026;8.712;2023-07-30T11:41:36;21.60;99.90
41678;DHT22;27364;49.026;8.712;2023-07-30T11:44:03;21.60;99.90
41678;DHT22;27364;49.026;8.712;2023-07-30T11:46:29;21.50;99.90
41678;DHT22;27364;49.026;8.712;2023-07-30T11:49:12;21.60;99.90
41678;DHT22;27364;49.026;8.712;2023-07-30T11:51:38;21.60;99.90
41678;DHT22;27364;49.026;8.712;2023-07-30T11:54:03;21.70;99.90
41678;DHT22;27364;49.026;8.712;2023-07-30T11:56:31;21.70;99.90
41678;DHT22;27364;49.026;8.712;2023-07-30T11:59:10;21.80;99.90
41678;DHT22;27364;49.026;8.712;2023-07-30T12:01:36;21.90;99.90
41678;DHT22;27364;49.026;8.712;2023-07-30T12:04:04;21.90;99.90
41678;DHT22;27364;49.026;8.712;2023-07-30T12:06:40;22.00;99.90
41678;DHT22;27364;49.026;8.712;2023-07-30T12:09:18;22.10;99.90
41678;DHT22;27364;49.026;8.712;2023-07-30T12:11:56;22.30;99.90
41678;DHT22;27364;49.026;8.712;2023-07-30T12:14:23;22.40;99.90
41678;DHT22;27364;49.026;8.712;2023-07-30T12:16:51;22.60;99.90
41678;DHT22;27364;49.026;8.712;2023-07-30T12:19:16;22.60;99.90
41678;DHT22;27364;49.026;8.712;2023-07-30T12:21:42;22.60;99.90
41678;DHT22;27364;49.026;8.712;2023-07-30T12:24:08;22.50;99.90
41678;DHT22;27364;49.026;8.712;2023-07-30T12:26:33;22.50;99.90
41678;DHT22;27364;49.026;8.712;2023-07-30T12:28:59;22.60;99.90
41678;DHT22;27364;49.026;8.712;2023-07-30T12:31:25;22.50;99.90
41678;DHT22;27364;49.026;8.712;2023-07-30T12:33:50;22.40;99.90
41678;DHT22;27364;49.026;8.712;2023-07-30T12:36:16;22.00;99.90
41678;DHT22;27364;49.026;8.712;2023-07-30T12:38:41;21.90;99.90
41678;DHT22;27364;49.026;8.712;2023-07-30T12:41:07;22.00;99.90
41678;DHT22;27364;49.026;8.712;2023-07-30T12:43:33;22.10;99.90
41678;DHT22;27364;49.026;8.712;2023-07-30T12:45:58;22.10;99.90
41678;DHT22;27364;49.026;8.712;2023-07-30T12:48:24;22.30;99.90
41678;DHT22;27364;49.026;8.712;2023-07-30T12:50:49;22.30;99.90
41678;DHT22;27364;49.026;8.712;2023-07-30T12:53:15;22.40;99.90
41678;DHT22;27364;49.026;8.712;2023-07-30T12:55:41;22.40;99.90
41678;DHT22;27364;49.026;8.712;2023-07-30T12:58:07;22.30;99.90
41678;DHT22;27364;49.026;8.712;2023-07-30T13:00:34;22.20;99.90
41678;DHT22;27364;49.026;8.712;2023-07-30T13:02:59;21.90;99.90
41678;DHT22;27364;49.026;8.712;2023-07-30T13:05:25;21.60;99.90
41678;DHT22;27364;49.026;8.712;2023-07-30T13:07:51;21.40;99.90
41678;DHT22;27364;49.026;8.712;2023-07-30T13:10:17;21.60;99.90
41678;DHT22;27364;49.026;8.712;2023-07-30T13:12:42;21.70;99.90
41678;DHT22;27364;49.026;8.712;2023-07-30T13:15:14;21.40;99.90
41678;DHT22;27364;49.026;8.712;2023-07-30T13:17:40;21.30;99.90
41678;DHT22;27364;49.026;8.712;2023-07-30T13:20:06;21.30;99.90
41678;DHT22;27364;49.026;8.712;2023-07-30T13:22:32;21.40;99.90
41678;DHT22;27364;49.026;8.712;2023-07-30T13:24:57;21.30;99.90
41678;DHT22;27364;49.026;8.712;2023-07-30T13:27:23;21.20;99.90
41678;DHT22;27364;49.026;8.712;2023-07-30T13:29:49;21.10;99.90
41678;DHT22;27364;49.026;8.712;2023-07-30T13:32:15;21.10;99.90
41678;DHT22;27364;49.026;8.712;2023-07-30T13:34:41;21.10;99.90
41678;DHT22;27364;49.026;8.712;2023-07-30T13:37:07;21.30;99.90
41678;DHT22;27364;49.026;8.712;2023-07-30T13:39:32;21.10;99.90
41678;DHT22;27364;49.026;8.712;2023-07-30T13:41:58;21.00;99.90
41678;DHT22;27364;49.026;8.712;2023-07-30T13:44:26;21.00;99.90
41678;DHT22;27364;49.026;8.712;2023-07-30T13:46:51;20.70;99.90
41678;DHT22;27364;49.026;8.712;2023-07-30T13:49:17;20.70;99.90
41678;DHT22;27364;49.026;8.712;2023-07-30T13:51:42;20.70;99.90
41678;DHT22;27364;49.026;8.712;2023-07-30T13:54:08;20.70;99.90
41678;DHT22;27364;49.026;8.712;2023-07-30T13:56:34;20.70;99.90
41678;DHT22;27364;49.026;8.712;2023-07-30T13:58:59;20.70;99.90
41678;DHT22;27364;49.026;8.712;2023-07-30T14:01:25;20.60;99.90
41678;DHT22;27364;49.026;8.712;2023-07-30T14:03:51;20.70;99.90
41678;DHT22;27364;49.026;8.712;2023-07-30T14:06:17;20.70;99.90
41678;DHT22;27364;49.026;8.712;2023-07-30T14:08:43;20.60;99.90
41678;DHT22;27364;49.026;8.712;2023-07-30T14:11:08;20.60;99.90
41678;DHT22;27364;49.026;8.712;2023-07-30T14:13:34;20.60;99.90
41678;DHT22;27364;49.026;8.712;2023-07-30T14:15:59;20.50;99.90
41678;DHT22;27364;49.026;8.712;2023-07-30T14:18:25;20.40;99.90
41678;DHT22;27364;49.026;8.712;2023-07-30T14:20:51;20.40;99.90
41678;DHT22;27364;49.026;8.712;2023-07-30T14:23:18;20.30;99.90
41678;DHT22;27364;49.026;8.712;2023-07-30T14:25:44;20.30;99.90
41678;DHT22;27364;49.026;8.712;2023-07-30T14:28:10;20.30;99.90
41678;DHT22;27364;49.026;8.712;2023-07-30T14:30:35;20.70;99.90
41678;DHT22;27364;49.026;8.712;2023-07-30T14:33:02;20.80;99.90
41678;DHT22;27364;49.026;8.712;2023-07-30T14:35:28;20.80;99.90
41678;DHT22;27364;49.026;8.712;2023-07-30T14:37:54;20.60;99.90
41678;DHT22;27364;49.026;8.712;2023-07-30T14:40:20;20.50;99.90
41678;DHT22;27364;49.026;8.712;2023-07-30T14:42:46;20.40;99.90
41678;DHT22;27364;49.026;8.712;2023-07-30T14:45:12;20.40;99.90
41678;DHT22;27364;49.026;8.712;2023-07-30T14:47:38;20.30;99.90
41678;DHT22;27364;49.026;8.712;2023-07-30T14:50:05;20.30;99.90
41678;DHT22;27364;49.026;8.712;2023-07-30T14:52:31;20.30;99.90
41678;DHT22;27364;49.026;8.712;2023-07-30T14:54:58;20.50;98.60
41678;DHT22;27364;49.026;8.712;2023-07-30T14:57:24;20.60;98.90
41678;DHT22;27364;49.026;8.712;2023-07-30T14:59:50;20.60;97.80
41678;DHT22;27364;49.026;8.712;2023-07-30T15:02:16;20.70;97.30
41678;DHT22;27364;49.026;8.712;2023-07-30T15:04:42;20.70;98.50
41678;DHT22;27364;49.026;8.712;2023-07-30T15:07:08;20.70;97.00
41678;DHT22;27364;49.026;8.712;2023-07-30T15:09:35;20.70;99.00
41678;DHT22;27364;49.026;8.712;2023-07-30T15:12:02;20.70;97.60
41678;DHT22;27364;49.026;8.712;2023-07-30T15:14:28;20.70;99.00
41678;DHT22;27364;49.026;8.712;2023-07-30T15:16:54;20.80;97.70
41678;DHT22;27364;49.026;8.712;2023-07-30T15:19:19;20.70;97.90
41678;DHT22;27364;49.026;8.712;2023-07-30T15:21:45;20.70;96.30
41678;DHT22;27364;49.026;8.712;2023-07-30T15:24:11;20.80;97.20
41678;DHT22;27364;49.026;8.712;2023-07-30T15:26:36;20.80;97.20
41678;DHT22;27364;49.026;8.712;2023-07-30T15:29:02;21.00;95.40